Time;durP1;ratioP1;P1;durP2;ratioP2;P2;SDS_P1;SDS_P2;PMS_P1;PMS_P2;Temp;Humidity;BMP_temperature;BMP_pressure;BME280_temperature;BME280_humidity;BME280_pressure;Samples;Min_cycle;Max_cycle;Signal;HPM_P1;HPM_P2
2020/12/12 00:01:41;;;;;;;18.42;11.13;;;;;;;3.60;99.84;96693.75;5115383;28;19913;-74
2020/12/12 00:04:06;;;;;;;22.70;12.60;;;;;;;3.61;99.77;96694.56;5114697;28;20039;-75
2020/12/12 00:06:32;;;;;;;34.25;13.50;;;;;;;3.60;99.82;96688.34;5114538;28;20028;-75
2020/12/12 00:08:57;;;;;;;31.33;15.50;;;;;;;3.58;99.71;96687.03;5111724;28;20027;-74
2020/12/12 00:11:22;;;;;;;29.38;13.95;;;;;;;3.55;99.63;96683.00;5112284;28;20529;-74
2020/12/12 00:13:48;;;;;;;;;;;;;;;3.50;99.83;96676.81;5112217;28;20066;-73
2020/12/12 00:16:17;;;;;;;27.75;13.45;;;;;;;3.52;99.97;96675.44;5111901;28;19915;-74
2020/12/12 00:18:43;;;;;;;36.38;15.35;;;;;;;3.50;99.91;96671.41;5111935;28;20384;-73
2020/12/12 00:21:11;;;;;;;34.15;13.50;;;;;;;3.45;100.00;96668.72;5111669;28;20055;-74
2020/12/12 00:23:36;;;;;;;28.95;14.13;;;;;;;3.53;100.00;96670.84;5111966;28;20430;-74
2020/12/12 00:26:02;;;;;;;29.88;15.70;;;;;;;3.44;100.00;96665.25;5111525;28;20024;-74
2020/12/12 00:28:27;;;;;;;30.73;12.90;;;;;;;3.43;99.91;96663.63;5111807;28;20027;-74
2020/12/12 00:30:53;;;;;;;28.90;14.48;;;;;;;3.51;99.60;96664.94;5110088;28;20065;-74
2020/12/12 00:33:18;;;;;;;;;;;;;;;3.58;99.42;96678.91;5112168;28;20024;-73
2020/12/12 00:35:43;;;;;;;27.48;13.10;;;;;;;3.49;99.87;96664.38;5111644;28;19972;-73
2020/12/12 00:38:09;;;;;;;31.60;15.25;;;;;;;3.47;100.00;96677.38;5111574;28;20023;-74
2020/12/12 00:40:34;;;;;;;;;;;;;;;3.44;100.00;96681.47;5111796;28;20076;-74
2020/12/12 00:42:59;;;;;;;32.58;15.25;;;;;;;3.36;100.00;96681.22;5111661;28;19959;-73
2020/12/12 00:45:25;;;;;;;29.30;16.42;;;;;;;3.30;100.00;96685.06;5111248;28;20089;-73
2020/12/12 00:47:50;;;;;;;37.35;18.30;;;;;;;3.29;100.00;96678.84;5111270;28;20027;-74
2020/12/12 00:50:15;;;;;;;31.58;14.70;;;;;;;3.32;100.00;96680.19;5111091;28;20473;-73
2020/12/12 00:52:41;;;;;;;36.53;13.65;;;;;;;3.35;100.00;96674.22;5111420;28;20049;-73
2020/12/12 00:55:06;;;;;;;34.03;16.80;;;;;;;3.30;100.00;96674.25;5111254;28;20031;-74
2020/12/12 00:57:32;;;;;;;29.20;16.42;;;;;;;3.34;100.00;96678.00;5109933;28;20130;-73
2020/12/12 00:59:57;;;;;;;;;;;;;;;3.38;100.00;96674.47;5111763;28;20049;-74
2020/12/12 01:02:22;;;;;;;36.10;15.75;;;;;;;3.40;100.00;96671.47;5109956;28;19912;-74
2020/12/12 01:04:48;;;;;;;;;;;;;;;3.51;99.96;96667.63;5112007;28;20101;-74
2020/12/12 01:07:13;;;;;;;33.85;14.27;;;;;;;3.52;99.69;96680.03;5110924;28;19941;-74
2020/12/12 01:09:38;;;;;;;;;;;;;;;3.51;99.83;96684.63;5109940;28;20019;-74
2020/12/12 01:12:04;;;;;;;36.97;16.42;;;;;;;3.44;99.81;96678.75;5111152;28;20315;-74
2020/12/12 01:14:29;;;;;;;33.50;15.70;;;;;;;3.37;100.00;96672.03;5110497;28;20039;-74
2020/12/12 01:16:59;;;;;;;32.30;16.67;;;;;;;3.30;100.00;96677.75;5092702;28;20503;-74
2020/12/12 01:19:24;;;;;;;33.15;13.80;;;;;;;3.31;100.00;96673.16;5089362;28;20032;-74
2020/12/12 01:21:53;;;;;;;31.45;15.07;;;;;;;3.39;100.00;96680.66;5090380;28;20088;-74
2020/12/12 01:24:18;;;;;;;31.25;15.57;;;;;;;3.41;100.00;96673.09;5089651;28;20370;-75
2020/12/12 01:26:45;;;;;;;30.83;15.20;;;;;;;3.36;100.00;96673.13;5088977;28;20043;-74
2020/12/12 01:29:10;;;;;;;34.97;19.00;;;;;;;3.39;100.00;96659.06;5090898;28;20422;-74
2020/12/12 01:31:36;;;;;;;31.80;16.88;;;;;;;3.36;100.00;96673.94;5090515;28;20061;-74
2020/12/12 01:34:01;;;;;;;40.05;14.35;;;;;;;3.39;100.00;96665.28;5090589;28;20107;-74
2020/12/12 01:36:26;;;;;;;;;;;;;;;3.43;100.00;96665.50;5090778;28;20032;-74
2020/12/12 01:38:52;;;;;;;31.35;14.75;;;;;;;3.30;100.00;96661.56;5090359;28;19920;-74
2020/12/12 01:41:18;;;;;;;;;;;;;;;3.45;100.00;96674.13;5091607;28;20051;-74
2020/12/12 01:43:49;;;;;;;28.00;14.75;;;;;;;3.46;100.00;96675.75;5089441;28;19919;-74
2020/12/12 01:46:24;;;;;;;33.63;15.35;;;;;;;3.47;100.00;96677.38;5089010;28;20104;-73
2020/12/12 01:48:55;;;;;;;28.33;14.70;;;;;;;3.49;100.00;96667.09;5089270;28;20028;-74
2020/12/12 01:51:22;;;;;;;32.30;14.50;;;;;;;3.51;99.90;96673.03;5089902;28;20056;-73
2020/12/12 01:53:50;;;;;;;31.67;15.85;;;;;;;3.55;99.98;96660.56;5090167;28;20081;-73
2020/12/12 01:56:17;;;;;;;24.25;13.35;;;;;;;3.48;99.97;96663.56;5090292;28;20538;-75
2020/12/12 01:58:43;;;;;;;30.25;14.63;;;;;;;3.59;99.98;96665.13;5090381;28;20020;-74
2020/12/12 02:01:11;;;;;;;30.73;16.10;;;;;;;3.50;99.93;96661.41;5090188;28;20055;-73
2020/12/12 02:03:41;;;;;;;33.50;16.33;;;;;;;3.51;100.00;96663.00;5091417;28;20032;-73
2020/12/12 02:06:11;;;;;;;35.33;17.27;;;;;;;3.45;100.00;96663.31;5110195;28;20035;-73
2020/12/12 02:08:36;;;;;;;28.48;14.95;;;;;;;3.53;100.00;96657.34;5099467;28;20028;-74
2020/12/12 02:11:03;;;;;;;29.55;16.30;;;;;;;3.39;100.00;96650.94;5089750;28;20121;-73
2020/12/12 02:13:28;;;;;;;27.27;16.23;;;;;;;3.47;100.00;96651.16;5090196;28;20035;-74
2020/12/12 02:15:54;;;;;;;33.10;15.93;;;;;;;3.51;100.00;96646.78;5089732;28;20020;-73
2020/12/12 02:18:21;;;;;;;36.13;17.10;;;;;;;3.49;100.00;96650.88;5088414;28;20027;-73
2020/12/12 02:20:58;;;;;;;37.03;15.27;;;;;;;3.48;100.00;96641.16;5099931;28;20488;-73
2020/12/12 02:23:24;;;;;;;36.15;18.40;;;;;;;3.55;100.00;96636.22;5113847;28;20109;-73
2020/12/12 02:25:52;;;;;;;35.47;17.08;;;;;;;3.61;100.00;96633.19;5113749;28;20020;-73
2020/12/12 02:28:24;;;;;;;26.75;15.50;;;;;;;3.59;100.00;96639.97;5113953;28;20066;-73
2020/12/12 02:30:50;;;;;;;33.30;15.35;;;;;;;3.63;99.71;96643.75;5113581;28;20023;-74
2020/12/12 02:33:16;;;;;;;33.63;16.33;;;;;;;3.52;99.59;96642.19;5112129;28;20480;-74
2020/12/12 02:35:42;;;;;;;30.33;17.10;;;;;;;3.44;99.70;96646.34;5113864;28;20036;-73
2020/12/12 02:38:07;;;;;;;31.65;16.27;;;;;;;3.47;99.46;96642.25;5112274;28;20490;-73
2020/12/12 02:40:33;;;;;;;;;;;;;;;3.54;99.08;96640.81;5114053;28;20062;-73
2020/12/12 02:42:58;;;;;;;29.98;14.50;;;;;;;3.55;98.85;96647.03;5113850;27;19916;-74
2020/12/12 02:45:23;;;;;;;;;;;;;;;3.44;99.26;96640.13;5112800;28;20020;-73
2020/12/12 02:47:49;;;;;;;33.05;15.82;;;;;;;3.39;99.99;96637.44;5113448;28;19912;-73
2020/12/12 02:50:15;;;;;;;32.65;15.88;;;;;;;3.38;100.00;96635.84;5111909;28;20027;-73
2020/12/12 02:52:42;;;;;;;33.85;15.48;;;;;;;3.29;100.00;96634.84;5113285;28;20159;-73
2020/12/12 02:55:10;;;;;;;32.22;15.45;;;;;;;3.24;100.00;96636.47;5111886;28;20515;-73
2020/12/12 02:57:37;;;;;;;38.20;16.85;;;;;;;3.20;100.00;96632.72;5112841;28;20114;-73
2020/12/12 03:00:08;;;;;;;36.10;16.90;;;;;;;3.22;100.00;96633.25;5113156;28;20111;-73
2020/12/12 03:02:34;;;;;;;33.45;15.57;;;;;;;3.36;100.00;96638.00;5112974;28;20472;-73
2020/12/12 03:05:00;;;;;;;32.53;16.25;;;;;;;3.27;99.40;96628.88;5112848;28;20067;-73
2020/12/12 03:07:25;;;;;;;32.63;16.38;;;;;;;3.28;99.73;96631.31;5113006;28;20069;-73
2020/12/12 03:09:50;;;;;;;33.97;17.58;;;;;;;3.32;100.00;96623.47;5113039;28;20031;-73
2020/12/12 03:12:16;;;;;;;;;;;;;;;3.44;100.00;96629.31;5114014;28;20131;-73
2020/12/12 03:14:41;;;;;;;29.75;14.20;;;;;;;3.44;99.79;96621.19;5112793;28;19911;-73
2020/12/12 03:17:09;;;;;;;;;;;;;;;3.42;100.00;96618.75;5113289;28;20027;-73
2020/12/12 03:19:36;;;;;;;32.80;14.80;;;;;;;3.47;99.86;96618.75;5112767;28;19990;-73
2020/12/12 03:22:01;;;;;;;33.17;15.40;;;;;;;3.40;99.99;96617.44;5112833;28;20027;-73
2020/12/12 03:24:27;;;;;;;40.20;16.15;;;;;;;3.37;99.92;96618.81;5111253;28;20027;-73
2020/12/12 03:26:52;;;;;;;32.75;15.65;;;;;;;3.32;99.99;96610.72;5112801;28;20027;-73
2020/12/12 03:29:17;;;;;;;;;;;;;;;3.29;100.00;96608.59;5113012;28;20126;-73
2020/12/12 03:31:43;;;;;;;28.85;14.68;;;;;;;3.30;100.00;96601.31;5112441;28;19955;-74
2020/12/12 03:34:08;;;;;;;;;;;;;;;3.32;100.00;96612.66;5111963;28;20469;-73
2020/12/12 03:36:34;;;;;;;28.65;15.10;;;;;;;3.39;100.00;96610.41;5112951;28;19912;-73
2020/12/12 03:38:59;;;;;;;;;;;;;;;3.37;100.00;96609.91;5111387;28;20031;-73
2020/12/12 03:41:24;;;;;;;31.70;14.23;;;;;;;3.43;100.00;96603.38;5107753;28;19912;-72
2020/12/12 03:43:50;;;;;;;34.58;16.23;;;;;;;3.38;99.99;96592.59;5091975;28;20048;-73
2020/12/12 03:46:15;;;;;;;22.92;13.55;;;;;;;3.43;99.03;96600.66;5091979;28;20024;-73
2020/12/12 03:48:41;;;;;;;24.08;12.88;;;;;;;3.33;98.95;96595.34;5092103;28;20599;-73
2020/12/12 03:51:07;;;;;;;24.73;13.38;;;;;;;3.30;99.29;96596.72;5091667;28;20123;-73
2020/12/12 03:53:33;;;;;;;26.50;12.95;;;;;;;3.28;99.61;96592.69;5107196;28;20020;-73
2020/12/12 03:55:58;;;;;;;29.30;14.68;;;;;;;3.28;99.56;96592.69;5091570;28;20085;-73
2020/12/12 03:58:23;;;;;;;27.48;13.80;;;;;;;3.23;98.79;96602.44;5110590;28;20392;-74
2020/12/12 04:00:49;;;;;;;;;;;;;;;3.24;98.63;96593.25;5111028;28;20028;-73
2020/12/12 04:03:14;;;;;;;24.58;13.23;;;;;;;3.20;98.86;96594.88;5110570;28;19973;-73
2020/12/12 04:05:43;;;;;;;;;;;;;;;3.30;99.74;96595.91;5112339;28;20114;-73
2020/12/12 04:08:09;;;;;;;22.17;12.70;;;;;;;3.31;99.51;96598.34;5110528;28;19911;-73
2020/12/12 04:10:35;;;;;;;28.42;14.15;;;;;;;3.32;99.10;96593.75;5111753;28;20027;-73
2020/12/12 04:13:00;;;;;;;22.50;14.25;;;;;;;3.30;99.49;96590.50;5110880;28;20122;-73
2020/12/12 04:15:25;;;;;;;;;;;;;;;3.33;99.33;96595.34;5110553;28;20073;-73
2020/12/12 04:17:51;;;;;;;21.90;11.45;;;;;;;3.31;98.97;96598.34;5111806;28;19978;-73
2020/12/12 04:20:16;;;;;;;31.70;14.15;;;;;;;3.34;98.99;96599.66;5110086;28;20024;-73
2020/12/12 04:22:41;;;;;;;;;;;;;;;3.36;99.11;96597.47;5111925;28;20162;-72
2020/12/12 04:25:07;;;;;;;21.52;11.73;;;;;;;3.32;98.91;96596.44;5111542;28;19950;-73
2020/12/12 04:27:32;;;;;;;20.20;12.30;;;;;;;3.29;99.08;96597.00;5111389;28;20031;-73
2020/12/12 04:29:57;;;;;;;;;;;;;;;3.35;99.27;96603.97;5099530;28;20032;-73
2020/12/12 04:32:23;;;;;;;20.45;11.02;;;;;;;3.42;99.07;96602.53;5089646;28;20305;-73
2020/12/12 04:34:49;;;;;;;23.98;12.82;;;;;;;3.44;99.00;96596.88;5090948;28;20077;-73
2020/12/12 04:37:14;;;;;;;25.85;13.48;;;;;;;3.43;98.94;96595.25;5090730;28;20477;-73
2020/12/12 04:39:39;;;;;;;22.08;11.52;;;;;;;3.38;98.77;96590.72;5090703;28;20024;-72
2020/12/12 04:42:05;;;;;;;;;;;;;;;3.41;98.71;96598.25;5090258;28;20189;-73
2020/12/12 04:44:31;;;;;;;25.48;13.27;;;;;;;3.50;98.90;96591.16;5090617;28;19927;-73
2020/12/12 04:46:57;;;;;;;;;;;;;;;3.50;98.90;96601.97;5091630;28;20031;-72
2020/12/12 04:49:23;;;;;;;31.90;12.52;;;;;;;3.44;99.06;96594.19;5089873;28;19916;-73
2020/12/12 04:51:48;;;;;;;20.02;11.68;;;;;;;3.54;98.70;96594.09;5108218;28;20032;-73
2020/12/12 04:54:18;;;;;;;23.30;10.88;;;;;;;3.57;98.05;96596.22;5106840;28;20035;-72
2020/12/12 04:56:45;;;;;;;25.60;12.98;;;;;;;3.62;98.08;96598.88;5090782;28;20074;-73
2020/12/12 04:59:12;;;;;;;26.77;11.63;;;;;;;3.50;98.85;96587.63;5090656;28;20082;-73
2020/12/12 05:01:38;;;;;;;21.88;11.80;;;;;;;3.68;98.79;96593.13;5090762;28;20024;-73
2020/12/12 05:04:06;;;;;;;19.70;12.73;;;;;;;3.54;98.66;96588.69;5090652;28;20460;-72
2020/12/12 05:06:31;;;;;;;27.90;12.20;;;;;;;3.52;98.70;96593.56;5095269;28;20023;-73
2020/12/12 05:08:57;;;;;;;25.63;13.02;;;;;;;3.52;98.65;96593.56;5110924;28;20027;-72
2020/12/12 05:11:23;;;;;;;21.58;11.43;;;;;;;3.65;98.72;96592.91;5110830;28;20030;-72
2020/12/12 05:13:50;;;;;;;24.58;12.32;;;;;;;3.58;98.61;96597.81;5111341;28;20058;-73
2020/12/12 05:16:17;;;;;;;25.50;11.48;;;;;;;3.40;99.31;96591.22;5109251;28;20050;-73
2020/12/12 05:18:43;;;;;;;23.13;12.73;;;;;;;3.36;99.78;96589.34;5110845;28;20050;-72
2020/12/12 05:21:09;;;;;;;27.95;15.18;;;;;;;3.26;99.79;96584.06;5109423;28;20028;-72
2020/12/12 05:23:35;;;;;;;23.95;11.10;;;;;;;3.24;100.00;96582.44;5110533;28;20037;-71
2020/12/12 05:26:00;;;;;;;31.55;12.38;;;;;;;3.19;100.00;96585.19;5110565;28;20036;-73
2020/12/12 05:28:25;;;;;;;23.52;12.63;;;;;;;3.10;100.00;96576.06;5110889;28;20020;-72
2020/12/12 05:30:52;;;;;;;26.90;12.85;;;;;;;3.21;100.00;96587.59;5108956;28;20054;-73
2020/12/12 05:33:24;;;;;;;24.27;13.20;;;;;;;3.25;100.00;96588.66;5111049;28;20054;-74
2020/12/12 05:35:50;;;;;;;28.30;12.88;;;;;;;3.21;100.00;96593.00;5112209;28;20085;-80
2020/12/12 05:38:16;;;;;;;27.48;13.48;;;;;;;3.26;100.00;96592.94;5113513;28;20028;-74
2020/12/12 05:40:44;;;;;;;32.05;14.50;;;;;;;3.26;100.00;96592.16;5113754;28;20494;-75
2020/12/12 05:43:11;;;;;;;21.83;12.70;;;;;;;3.31;100.00;96592.94;5113742;28;20043;-77
2020/12/12 05:45:38;;;;;;;28.02;12.50;;;;;;;3.33;100.00;96593.44;5110837;28;20076;-72
2020/12/12 05:48:05;;;;;;;26.50;14.88;;;;;;;3.31;100.00;96587.53;5110559;28;20034;-72
2020/12/12 05:50:30;;;;;;;25.10;13.35;;;;;;;3.39;100.00;96589.59;5109991;28;20027;-72
2020/12/12 05:52:56;;;;;;;24.80;13.30;;;;;;;3.35;100.00;96579.66;5110805;28;20027;-72
2020/12/12 05:55:22;;;;;;;;;;;;;;;3.49;100.00;96588.72;5109654;28;20020;-72
2020/12/12 05:57:51;;;;;;;23.65;12.25;;;;;;;3.36;100.00;96594.75;5113214;28;19916;-72
2020/12/12 06:00:24;;;;;;;28.48;12.73;;;;;;;3.36;100.00;96590.16;5114591;28;20027;-73
2020/12/12 06:02:53;;;;;;;23.33;10.75;;;;;;;3.37;100.00;96578.28;5114646;27;20075;-72
2020/12/12 06:05:25;;;;;;;23.38;12.32;;;;;;;3.35;100.00;96593.97;5113130;28;20459;-72
2020/12/12 06:08:02;;;;;;;25.25;12.20;;;;;;;3.31;100.00;96587.53;5114340;28;20032;-72
2020/12/12 06:10:30;;;;;;;27.40;12.07;;;;;;;3.29;100.00;96589.69;5114299;28;20070;-72
2020/12/12 06:13:01;;;;;;;21.23;10.00;;;;;;;3.23;100.00;96585.41;5115322;28;20160;-72
2020/12/12 06:15:35;;;;;;;22.95;11.85;;;;;;;3.24;100.00;96598.66;5116340;28;21112;-73
2020/12/12 06:18:03;;;;;;;24.45;11.20;;;;;;;3.27;100.00;96593.75;5115920;28;20529;-73
2020/12/12 06:20:30;;;;;;;22.50;11.20;;;;;;;3.26;100.00;96592.94;5116004;28;20034;-73
2020/12/12 06:22:57;;;;;;;22.02;10.52;;;;;;;3.26;100.00;96589.47;5114992;28;20047;-73
2020/12/12 06:25:26;;;;;;;18.88;10.73;;;;;;;3.24;100.00;96592.44;5114158;28;20065;-72
2020/12/12 06:27:55;;;;;;;18.92;11.55;;;;;;;3.22;100.00;96606.25;5114155;28;20488;-72
2020/12/12 06:30:26;;;;;;;22.05;11.85;;;;;;;3.19;100.00;96601.41;5112646;28;20388;-72
2020/12/12 06:33:02;;;;;;;18.02;10.52;;;;;;;3.20;100.00;96597.59;5113999;28;20435;-72
2020/12/12 06:35:35;;;;;;;18.55;10.07;;;;;;;3.18;100.00;96599.78;5112885;28;20035;-73
2020/12/12 06:38:18;;;;;;;24.75;9.73;;;;;;;3.23;100.00;96607.03;5113833;28;20115;-72
2020/12/12 06:40:44;;;;;;;16.52;8.48;;;;;;;3.06;100.00;96607.44;5113766;28;20023;-72
2020/12/12 06:43:28;;;;;;;17.48;9.77;;;;;;;3.09;100.00;96612.28;5113472;28;20451;-73
2020/12/12 06:45:54;;;;;;;20.58;11.65;;;;;;;3.04;100.00;96615.00;5113799;28;20048;-73
2020/12/12 06:48:24;;;;;;;23.00;11.48;;;;;;;3.10;100.00;96621.19;5112432;28;20123;-72
2020/12/12 06:50:50;;;;;;;20.08;10.15;;;;;;;3.22;100.00;96621.63;5113662;27;20028;-72
2020/12/12 06:53:17;;;;;;;20.83;10.98;;;;;;;3.35;100.00;96621.00;5113668;27;20050;-73
2020/12/12 06:55:42;;;;;;;23.83;11.32;;;;;;;3.47;100.00;96623.34;5113455;28;20521;-72
2020/12/12 06:58:24;;;;;;;28.27;14.68;;;;;;;3.37;100.00;96632.31;5112211;28;20181;-72
2020/12/12 07:00:49;;;;;;;22.92;11.43;;;;;;;3.40;100.00;96630.94;5112009;28;20388;-72
2020/12/12 07:03:21;;;;;;;21.40;12.15;;;;;;;3.40;100.00;96630.94;5113393;28;20023;-73
2020/12/12 07:05:47;;;;;;;30.67;13.25;;;;;;;3.42;100.00;96637.69;5113387;27;20531;-73
2020/12/12 07:08:12;;;;;;;24.25;11.02;;;;;;;3.36;100.00;96644.22;5112126;28;20047;-73
2020/12/12 07:10:44;;;;;;;22.65;12.10;;;;;;;3.35;100.00;96625.59;5113254;27;20032;-73
2020/12/12 07:13:12;;;;;;;20.98;11.52;;;;;;;3.44;100.00;96640.13;5113897;28;20031;-72
2020/12/12 07:15:38;;;;;;;25.88;10.80;;;;;;;3.40;100.00;96633.66;5113232;28;20047;-72
2020/12/12 07:18:10;;;;;;;27.58;13.57;;;;;;;3.43;100.00;96646.59;5109522;28;21197;-73
2020/12/12 07:20:37;;;;;;;25.67;12.25;;;;;;;3.46;100.00;96646.03;5110674;28;20038;-72
2020/12/12 07:23:05;;;;;;;21.10;13.30;;;;;;;3.47;100.00;96653.88;5110928;28;20073;-73
2020/12/12 07:25:34;;;;;;;26.00;12.55;;;;;;;3.39;100.00;96637.44;5099475;28;20024;-72
2020/12/12 07:28:00;;;;;;;26.45;14.20;;;;;;;3.44;100.00;96640.13;5112902;28;20024;-72
2020/12/12 07:30:26;;;;;;;26.05;12.82;;;;;;;3.51;100.00;96638.69;5100734;28;20040;-73
2020/12/12 07:32:52;;;;;;;24.42;12.50;;;;;;;3.42;100.00;96647.69;5092019;28;20020;-72
2020/12/12 07:35:18;;;;;;;73.60;40.35;;;;;;;3.45;100.00;96644.41;5091899;28;20051;-73
2020/12/12 07:37:43;;;;;;;;;;;;;;;3.41;100.00;96655.00;5092279;28;20032;-72
2020/12/12 07:40:09;;;;;;;23.98;13.75;;;;;;;3.33;100.00;96643.97;5094418;28;20284;-72
2020/12/12 07:42:35;;;;;;;;;;;;;;;3.28;100.00;96644.81;5103942;28;20078;-72
2020/12/12 07:48:03;;;;;;;20.45;12.60;;;;;;;3.14;100.00;96633.84;5084219;28;20411;-73
2020/12/12 07:50:29;;;;;;;29.50;13.88;;;;;;;3.29;100.00;96648.34;5099896;28;20073;-73
2020/12/12 07:52:54;;;;;;;21.17;13.05;;;;;;;3.18;100.00;96653.00;5098401;28;20028;-72
2020/12/12 07:55:21;;;;;;;21.55;11.63;;;;;;;3.38;100.00;96652.06;5101079;28;20435;-73
2020/12/12 07:57:53;;;;;;;23.17;12.00;;;;;;;3.30;100.00;96639.13;5099409;28;20054;-73
2020/12/12 08:00:19;;;;;;;26.95;14.18;;;;;;;3.44;100.00;96651.75;5102693;28;20035;-73
2020/12/12 08:02:45;;;;;;;28.58;13.20;;;;;;;3.40;100.00;96656.09;5097141;28;20037;-73
2020/12/12 08:05:11;;;;;;;24.83;11.75;;;;;;;3.33;100.00;96665.59;5096747;28;20131;-72
2020/12/12 08:07:37;;;;;;;30.13;13.50;;;;;;;3.32;100.00;96634.28;5099622;28;20099;-75
2020/12/12 08:10:05;;;;;;;;;;;;;;;3.53;100.00;96660.03;5098649;28;20024;-74
2020/12/12 08:12:34;;;;;;;24.33;12.80;;;;;;;3.51;100.00;96646.00;5104315;28;19952;-74
2020/12/12 08:15:07;;;;;;;26.27;13.55;;;;;;;3.30;100.00;96658.03;5101341;28;20039;-74
2020/12/12 08:17:33;;;;;;;28.25;11.68;;;;;;;3.33;100.00;96663.69;5101270;28;20103;-73
2020/12/12 08:20:00;;;;;;;22.25;13.07;;;;;;;3.57;100.00;96671.91;5099658;28;20072;-73
2020/12/12 08:22:26;;;;;;;21.42;11.77;;;;;;;3.34;100.00;96662.63;5098377;28;20012;-75
2020/12/12 08:24:52;;;;;;;27.65;12.93;;;;;;;3.35;100.00;96671.53;5098030;28;20040;-75
2020/12/12 08:27:26;;;;;;;32.38;13.85;;;;;;;3.29;100.00;96659.16;5092609;28;20023;-75
2020/12/12 08:30:00;;;;;;;23.02;12.20;;;;;;;3.44;100.00;96675.25;5099686;28;20034;-75
2020/12/12 08:32:48;;;;;;;20.88;11.57;;;;;;;3.47;100.00;96671.97;5097725;28;20032;-74
2020/12/12 08:35:29;;;;;;;24.02;12.68;;;;;;;3.36;100.00;96673.13;5098529;28;20656;-73
2020/12/12 08:38:05;;;;;;;25.08;11.68;;;;;;;3.45;100.00;96685.75;5095069;28;20031;-73
2020/12/12 08:40:42;;;;;;;24.05;13.25;;;;;;;3.27;100.00;96677.50;5099737;28;20028;-74
2020/12/12 08:43:09;;;;;;;21.55;12.52;;;;;;;3.39;100.00;96683.38;5100092;28;20048;-73
2020/12/12 08:45:41;;;;;;;26.83;12.43;;;;;;;3.32;100.00;96672.09;5098893;28;20028;-73
2020/12/12 08:48:07;;;;;;;28.02;14.40;;;;;;;3.46;100.00;96694.69;5097511;28;20450;-73
2020/12/12 08:50:52;;;;;;;28.92;12.52;;;;;;;3.49;100.00;96691.41;5099747;28;20028;-73
2020/12/12 08:53:28;;;;;;;30.88;14.63;;;;;;;3.36;100.00;96681.22;5098462;28;20737;-73
2020/12/12 08:56:26;;;;;;;31.10;14.27;;;;;;;3.55;100.00;96691.09;5098806;28;20028;-70
2020/12/12 08:58:51;;;;;;;;;;;;;;;3.45;100.00;96695.75;5093224;28;20054;-71
2020/12/12 09:01:18;;;;;;;23.77;11.53;;;;;;;3.41;100.00;96700.94;5100391;28;19920;-70
2020/12/12 09:03:50;;;;;;;27.42;13.50;;;;;;;3.37;100.00;96685.56;5098362;28;20065;-71
2020/12/12 09:06:15;;;;;;;28.67;13.95;;;;;;;3.43;100.00;96703.34;5097266;28;20020;-71
2020/12/12 09:08:41;;;;;;;26.40;12.98;;;;;;;3.41;100.00;96710.94;5099374;28;20469;-71
2020/12/12 09:11:13;;;;;;;;;;;;;;;3.20;100.00;96711.06;5099836;28;20028;-71
2020/12/12 09:13:39;;;;;;;16.05;8.77;;;;;;;3.18;100.00;96705.13;5099416;28;19931;-71
2020/12/12 09:16:08;;;;;;;16.95;8.55;;;;;;;3.13;100.00;96710.53;5098860;28;20024;-72
2020/12/12 09:18:47;;;;;;;15.20;6.95;;;;;;;3.16;100.00;96706.50;5100336;28;20496;-71
2020/12/12 09:21:13;;;;;;;14.02;7.65;;;;;;;3.19;100.00;96705.94;5097591;28;20042;-71
2020/12/12 09:23:39;;;;;;;11.48;6.28;;;;;;;3.18;100.00;96709.72;5094452;28;20507;-71
2020/12/12 09:26:05;;;;;;;9.70;6.25;;;;;;;3.31;100.00;96700.19;5096098;28;20131;-72
2020/12/12 09:28:31;;;;;;;12.50;7.35;;;;;;;3.31;100.00;96701.00;5103561;28;20080;-75
2020/12/12 09:30:56;;;;;;;19.85;8.90;;;;;;;3.45;100.00;96695.75;5100287;28;20116;-75
2020/12/12 09:33:22;;;;;;;;;;;;;;;3.38;100.00;96706.09;5098003;28;20028;-76
2020/12/12 09:35:47;;;;;;;20.70;11.10;;;;;;;3.37;100.00;96693.66;5103879;28;19926;-72
2020/12/12 09:38:13;;;;;;;18.80;10.63;;;;;;;3.36;100.00;96697.44;5101590;28;20492;-73
2020/12/12 09:40:38;;;;;;;17.75;11.13;;;;;;;3.49;100.00;96699.53;5103279;28;20031;-72
2020/12/12 09:43:04;;;;;;;16.35;8.68;;;;;;;3.40;100.00;96695.81;5104409;28;20071;-71
2020/12/12 09:45:29;;;;;;;20.58;9.27;;;;;;;3.59;100.00;96696.75;5102970;28;20111;-71
2020/12/12 09:47:54;;;;;;;;;;;;;;;3.66;100.00;96691.84;5102981;28;20465;-72
2020/12/12 09:50:20;;;;;;;16.35;9.10;;;;;;;3.55;100.00;96684.88;5103602;28;19920;-73
2020/12/12 09:52:45;;;;;;;;;;;;;;;3.54;100.00;96686.78;5103193;28;20015;-73
2020/12/12 09:55:10;;;;;;;15.18;8.38;;;;;;;3.45;100.00;96685.75;5104422;28;19947;-74
2020/12/12 09:57:36;;;;;;;;;;;;;;;3.52;100.00;96678.16;5105661;28;20023;-71
2020/12/12 10:00:04;;;;;;;14.02;8.82;;;;;;;3.67;100.00;96686.13;5109171;28;19916;-72
2020/12/12 10:02:30;;;;;;;22.05;11.85;;;;;;;3.87;100.00;96687.88;5108458;28;20027;-71
2020/12/12 10:04:55;;;;;;;15.00;9.00;;;;;;;4.05;100.00;96680.94;5107774;28;20077;-72
2020/12/12 10:07:20;;;;;;;;;;;;;;;4.14;99.13;96693.56;5108743;27;20038;-73
2020/12/12 10:09:46;;;;;;;14.52;7.20;;;;;;;4.30;98.70;96686.91;5108234;28;19961;-72
2020/12/12 10:12:13;;;;;;;11.75;7.80;;;;;;;4.03;97.91;96683.94;5108690;28;20073;-71
2020/12/12 10:14:39;;;;;;;11.30;6.95;;;;;;;3.97;98.67;96679.69;5109453;28;20020;-72
2020/12/12 10:17:04;;;;;;;17.17;7.35;;;;;;;4.07;98.08;96676.06;5108907;28;20027;-72
2020/12/12 10:19:30;;;;;;;12.73;6.50;;;;;;;3.88;98.24;96675.16;5108292;28;20031;-72
2020/12/12 10:21:55;;;;;;;;;;;;;;;4.03;98.32;96683.13;5106900;28;20033;-71
2020/12/12 10:24:20;;;;;;;9.43;6.95;;;;;;;3.99;98.28;96682.09;5095031;28;20010;-75
2020/12/12 10:26:46;;;;;;;15.45;7.72;;;;;;;3.88;98.83;96694.09;5095728;28;20027;-75
2020/12/12 10:29:11;;;;;;;13.82;7.45;;;;;;;4.06;98.93;96687.97;5105695;27;20054;-73
2020/12/12 10:31:37;;;;;;;13.48;8.27;;;;;;;4.10;98.26;96678.97;5105437;28;20458;-75
2020/12/12 10:34:02;;;;;;;;;;;;;;;4.11;98.33;96680.59;5104066;28;20035;-75
2020/12/12 10:36:27;;;;;;;13.00;6.72;;;;;;;3.93;98.73;96692.16;5104372;28;19916;-73
2020/12/12 10:38:53;;;;;;;15.43;7.30;;;;;;;3.99;98.56;96696.41;5100835;28;20075;-73
2020/12/12 10:41:18;;;;;;;9.13;5.72;;;;;;;3.96;97.83;96675.34;5102713;28;20156;-73
2020/12/12 10:43:44;;;;;;;;;;;;;;;3.96;98.69;96686.16;5113419;28;20052;-72
2020/12/12 10:46:09;;;;;;;9.70;6.35;;;;;;;4.01;98.77;96688.03;5112934;28;20273;-73
2020/12/12 10:48:34;;;;;;;;;;;;;;;4.01;99.35;96694.22;5112733;28;20019;-73
2020/12/12 10:51:00;;;;;;;11.13;5.50;;;;;;;4.15;97.94;96694.38;5105630;28;20395;-73
2020/12/12 10:53:25;;;;;;;;;;;;;;;4.21;96.87;96699.47;5110029;28;20030;-72
2020/12/12 10:55:50;;;;;;;11.18;5.78;;;;;;;4.05;97.52;96697.16;5111396;28;19918;-72
2020/12/12 10:58:16;;;;;;;11.13;6.97;;;;;;;4.26;97.75;96702.09;5111779;28;20510;-76
2020/12/12 11:00:44;;;;;;;;;;;;;;;4.13;97.61;96696.56;5113318;28;20031;-72
2020/12/12 11:03:10;;;;;;;11.57;6.55;;;;;;;4.12;97.91;96697.66;5112904;28;20288;-72
2020/12/12 11:05:35;;;;;;;11.93;6.88;;;;;;;4.22;97.71;96690.25;5113302;28;20031;-75
2020/12/12 11:08:01;;;;;;;10.68;6.75;;;;;;;4.19;97.78;96687.31;5111720;28;20039;-72
2020/12/12 11:10:26;;;;;;;10.30;7.05;;;;;;;4.31;97.46;96691.25;5112794;28;20035;-71
2020/12/12 11:12:52;;;;;;;18.52;8.85;;;;;;;4.14;97.36;96687.34;5112458;28;20024;-71
2020/12/12 11:15:17;;;;;;;;;;;;;;;4.30;96.81;96689.63;5111694;28;20107;-72
2020/12/12 11:17:44;;;;;;;11.35;7.85;;;;;;;4.29;97.35;96690.69;5113254;28;19983;-73
2020/12/12 11:20:13;;;;;;;15.77;8.90;;;;;;;3.98;97.78;96683.19;5103529;28;20032;-72
2020/12/12 11:22:39;;;;;;;12.82;7.25;;;;;;;3.97;98.27;96686.97;5104400;28;20119;-73
2020/12/12 11:25:06;;;;;;;17.95;8.00;;;;;;;3.93;98.25;96692.16;5114752;28;20443;-73
2020/12/12 11:27:31;;;;;;;14.43;8.35;;;;;;;4.04;99.31;96690.94;5106720;28;20028;-75
2020/12/12 11:29:57;;;;;;;13.60;7.38;;;;;;;4.25;98.32;96692.38;5099106;28;20089;-77
2020/12/12 11:32:22;;;;;;;;;;;;;;;4.12;97.09;96690.34;5104582;28;20119;-73
2020/12/12 11:35:09;;;;;;;13.75;7.00;;;;;;;4.01;97.55;96683.41;5100128;28;19953;-71
2020/12/12 11:40:33;;;;;;;14.15;9.25;;;;;;;4.14;97.88;96681.94;5101610;28;20043;-76